createdAt,value
2022-10-03T00:01:00.503Z,1.75
2022-10-03T00:03:22.889Z,1.95
2022-10-03T00:05:43.429Z,2.13
2022-10-03T00:08:00.100Z,1.70
2022-10-03T00:10:20.466Z,1.83
2022-10-03T00:12:37.718Z,2.38
2022-10-03T00:14:48.047Z,2.30
2022-10-03T00:16:55.863Z,2.15
2022-10-03T00:19:03.794Z,2.50
2022-10-03T00:21:05.198Z,2.38
2022-10-03T00:23:06.945Z,1.35
2022-10-03T00:25:27.063Z,3.95
2022-10-03T00:27:51.882Z,3.83
2022-10-03T00:29:56.411Z,5.70
2022-10-03T00:32:00.953Z,1.80
2022-10-03T00:34:22.735Z,1.52
2022-10-03T00:36:35.149Z,2.08
2022-10-03T00:38:36.682Z,1.83
2022-10-03T00:40:38.218Z,0.90
2022-10-03T00:42:46.431Z,1.20
2022-10-03T00:44:53.754Z,1.50
2022-10-03T00:46:55.201Z,1.15
2022-10-03T00:48:59.807Z,0.60
2022-10-03T00:51:13.414Z,1.20
2022-10-03T00:53:30.224Z,1.70
2022-10-03T00:55:40.679Z,1.73
2022-10-03T00:57:51.028Z,1.60
2022-10-03T01:00:01.345Z,1.38
2022-10-03T01:02:23.298Z,1.25
2022-10-03T01:04:30.931Z,1.20
2022-10-03T01:06:58.976Z,1.60
2022-10-03T01:09:12.212Z,0.90
2022-10-03T01:11:25.136Z,1.13
2022-10-03T01:13:26.602Z,1.30
2022-10-03T01:15:27.999Z,1.48
2022-10-03T01:17:48.060Z,1.52
2022-10-03T01:19:59.834Z,1.38
2022-10-03T01:22:23.919Z,1.80
2022-10-03T01:24:47.655Z,1.27
2022-10-03T01:26:53.469Z,1.25
2022-10-03T01:29:16.679Z,1.02
2022-10-03T01:31:23.032Z,0.82
2022-10-03T01:33:27.792Z,1.92
2022-10-03T01:35:48.186Z,1.10
2022-10-03T01:38:14.170Z,1.02
2022-10-03T01:40:29.629Z,0.77
2022-10-03T01:42:41.973Z,0.43
2022-10-03T01:44:43.420Z,0.73
2022-10-03T01:46:52.493Z,0.98
2022-10-03T01:49:29.389Z,0.68
2022-10-03T01:51:42.395Z,0.60
2022-10-03T01:54:24.030Z,0.90
2022-10-03T01:56:26.050Z,0.60
2022-10-03T01:58:46.366Z,0.57
2022-10-03T02:01:02.052Z,0.52
2022-10-03T02:03:18.172Z,1.08
2022-10-03T02:05:32.952Z,0.65
2022-10-03T02:07:44.761Z,0.80
2022-10-03T02:10:00.163Z,0.70
2022-10-03T02:12:13.302Z,0.70
2022-10-03T02:14:21.416Z,0.68
2022-10-03T02:16:35.560Z,0.70
2022-10-03T02:18:54.169Z,1.10
2022-10-03T02:21:13.334Z,0.90
2022-10-03T02:23:31.235Z,0.70
2022-10-03T02:25:58.145Z,0.65
2022-10-03T02:28:06.686Z,0.95
2022-10-03T02:30:14.574Z,0.82
2022-10-03T02:32:34.655Z,0.60
2022-10-03T02:34:39.161Z,0.70
2022-10-03T02:36:59.458Z,0.70
2022-10-03T02:39:13.458Z,1.33
2022-10-03T02:41:18.735Z,0.90
2022-10-03T02:43:43.151Z,1.10
2022-10-03T02:46:03.761Z,0.63
2022-10-03T02:48:30.654Z,0.70
2022-10-03T02:50:45.116Z,1.10
2022-10-03T02:53:07.601Z,0.60
2022-10-03T02:55:09.018Z,0.68
2022-10-03T02:57:29.488Z,0.93
2022-10-03T02:59:36.903Z,1.20
2022-10-03T03:01:47.359Z,1.00
2022-10-03T03:04:07.935Z,1.45
2022-10-03T03:06:30.166Z,0.73
2022-10-03T03:08:47.104Z,1.00
2022-10-03T03:11:08.172Z,0.65
2022-10-03T03:13:28.680Z,1.50
2022-10-03T03:15:48.739Z,1.00
2022-10-03T03:18:02.242Z,0.80
2022-10-03T03:20:21.735Z,1.08
2022-10-03T03:22:24.887Z,0.70
2022-10-03T03:24:35.427Z,1.20
2022-10-03T03:26:43.291Z,0.88
2022-10-03T03:29:03.636Z,0.80
2022-10-03T03:31:10.203Z,1.50
2022-10-03T03:33:41.343Z,2.08
2022-10-03T03:35:46.410Z,1.33
2022-10-03T03:38:00.430Z,1.35
2022-10-03T03:40:02.062Z,1.15
2022-10-03T03:42:09.641Z,1.25
2022-10-03T03:44:14.240Z,0.90
2022-10-03T03:46:19.534Z,0.80
2022-10-03T03:48:39.725Z,0.90
2022-10-03T03:50:41.562Z,2.03
2022-10-03T03:53:01.722Z,1.17
2022-10-03T03:55:03.140Z,1.30
2022-10-03T03:57:04.570Z,1.23
2022-10-03T03:59:05.944Z,1.20
2022-10-03T04:01:07.441Z,1.60
2022-10-03T04:03:09.264Z,1.13
2022-10-03T04:05:19.797Z,1.05
2022-10-03T04:07:40.808Z,4.05
2022-10-03T04:09:50.642Z,1.23
2022-10-03T04:11:55.296Z,1.30
2022-10-03T04:14:15.516Z,1.30
2022-10-03T04:16:40.025Z,1.75
2022-10-03T04:19:11.001Z,1.13
2022-10-03T04:21:21.682Z,1.25
2022-10-03T04:23:32.406Z,1.75
2022-10-03T04:25:39.953Z,1.80
2022-10-03T04:27:50.647Z,1.90
2022-10-03T04:29:56.631Z,1.10
2022-10-03T04:31:58.343Z,1.40
2022-10-03T04:33:59.818Z,1.63
2022-10-03T04:36:13.515Z,1.27
2022-10-03T04:38:33.731Z,1.60
2022-10-03T04:40:45.214Z,1.67
2022-10-03T04:43:02.160Z,1.70
2022-10-03T04:45:22.301Z,1.55
2022-10-03T04:47:29.382Z,2.35
2022-10-03T04:49:35.518Z,2.13
2022-10-03T04:51:42.837Z,1.98
2022-10-03T04:54:02.344Z,1.50
2022-10-03T04:56:22.145Z,2.22
2022-10-03T04:58:26.711Z,1.88
2022-10-03T05:00:33.472Z,2.17
2022-10-03T05:02:50.079Z,2.15
2022-10-03T05:04:57.623Z,3.78
2022-10-03T05:07:08.321Z,2.10
2022-10-03T05:09:14.578Z,2.28
2022-10-03T05:11:39.580Z,1.98
2022-10-03T05:13:47.843Z,1.75
2022-10-03T05:16:16.449Z,4.45
2022-10-03T05:18:26.648Z,2.10
2022-10-03T05:20:34.345Z,1.80
2022-10-03T05:22:43.565Z,2.25
2022-10-03T05:24:55.698Z,1.73
2022-10-03T05:27:17.010Z,1.60
2022-10-03T05:29:42.592Z,2.22
2022-10-03T05:31:47.128Z,2.55
2022-10-03T05:33:55.058Z,2.28
2022-10-03T05:36:12.089Z,3.15
2022-10-03T05:38:16.567Z,2.85
2022-10-03T05:40:20.328Z,2.72
2022-10-03T05:42:40.855Z,2.13
2022-10-03T05:44:51.014Z,3.50
2022-10-03T05:46:59.947Z,2.88
2022-10-03T05:49:02.041Z,3.10
2022-10-03T05:51:03.386Z,2.65
2022-10-03T05:53:17.846Z,2.67
2022-10-03T05:55:38.135Z,2.95
2022-10-03T05:57:58.240Z,3.15
2022-10-03T06:00:09.058Z,2.97
2022-10-03T06:02:29.695Z,2.65
2022-10-03T06:04:47.362Z,2.50
2022-10-03T06:07:07.696Z,3.00
2022-10-03T06:09:09.141Z,2.42
2022-10-03T06:11:11.677Z,3.05
2022-10-03T06:13:19.781Z,3.00
2022-10-03T06:15:49.754Z,3.10
2022-10-03T06:17:57.342Z,2.67
2022-10-03T06:20:18.575Z,3.28
2022-10-03T06:22:38.537Z,2.20
2022-10-03T06:24:59.481Z,3.42
2022-10-03T06:27:19.397Z,3.70
2022-10-03T06:29:43.117Z,3.10
2022-10-03T06:31:44.736Z,3.05
2022-10-03T06:34:01.217Z,3.03
2022-10-03T06:36:08.540Z,2.97
2022-10-03T06:38:25.190Z,3.00
2022-10-03T06:40:42.714Z,2.65
2022-10-03T06:42:53.337Z,3.40
2022-10-03T06:45:10.158Z,2.67
2022-10-03T06:47:20.794Z,2.72
2022-10-03T06:49:40.802Z,3.42
2022-10-03T06:51:45.550Z,2.67
2022-10-03T06:53:56.329Z,3.38
2022-10-03T06:56:23.198Z,2.67
2022-10-03T06:58:30.700Z,3.10
2022-10-03T07:00:32.382Z,2.42
2022-10-03T07:02:33.849Z,2.92
2022-10-03T07:04:45.355Z,2.92
2022-10-03T07:07:05.812Z,3.22
2022-10-03T07:09:13.121Z,2.50
2022-10-03T07:11:23.339Z,2.70
2022-10-03T07:13:25.151Z,2.70
2022-10-03T07:15:50.093Z,3.58
2022-10-03T07:17:54.511Z,2.95
2022-10-03T07:20:14.991Z,2.83
2022-10-03T07:22:23.691Z,2.88
2022-10-03T07:24:57.341Z,4.10
2022-10-03T07:27:17.788Z,3.13
2022-10-03T07:29:19.271Z,4.25
2022-10-03T07:31:21.154Z,3.10
2022-10-03T07:33:22.849Z,3.85
2022-10-03T07:36:01.325Z,5.50
2022-10-03T07:38:39.970Z,3.85
2022-10-03T07:40:56.705Z,3.80
2022-10-03T07:43:01.795Z,3.67
2022-10-03T07:45:34.780Z,3.95
2022-10-03T07:47:51.706Z,3.42
2022-10-03T07:50:05.644Z,3.03
2022-10-03T07:52:19.073Z,2.95
2022-10-03T07:54:26.854Z,3.58
2022-10-03T07:56:48.389Z,3.78
2022-10-03T07:59:08.581Z,4.28
2022-10-03T08:01:20.566Z,3.38
2022-10-03T08:03:48.433Z,4.05
2022-10-03T08:06:13.073Z,3.50
2022-10-03T08:08:32.038Z,3.03
2022-10-03T08:10:52.435Z,3.38
2022-10-03T08:13:03.029Z,3.55
2022-10-03T08:15:25.606Z,3.15
2022-10-03T08:17:31.275Z,3.22
2022-10-03T08:20:07.122Z,4.18
2022-10-03T08:22:14.559Z,3.65
2022-10-03T08:24:30.706Z,3.45
2022-10-03T08:26:51.972Z,3.38
2022-10-03T08:29:04.398Z,4.32
2022-10-03T08:31:13.923Z,5.00
2022-10-03T08:33:29.334Z,5.90
2022-10-03T08:35:39.192Z,5.43
2022-10-03T08:38:00.479Z,3.70
2022-10-03T08:40:10.149Z,4.55
2022-10-03T08:42:21.427Z,4.47
2022-10-03T08:44:32.011Z,4.95
2022-10-03T08:46:43.307Z,5.43
2022-10-03T08:49:03.797Z,4.90
2022-10-03T08:51:35.098Z,4.32
2022-10-03T08:53:55.633Z,4.82
2022-10-03T08:56:07.735Z,3.83
2022-10-03T08:58:09.138Z,4.50
2022-10-03T09:00:20.253Z,4.30
2022-10-03T09:02:36.042Z,4.10
2022-10-03T09:04:56.010Z,3.38
2022-10-03T09:07:18.020Z,3.15
2022-10-03T09:09:23.095Z,4.20
2022-10-03T09:11:38.073Z,3.28
2022-10-03T09:13:39.424Z,3.88
2022-10-03T09:15:46.937Z,3.63
2022-10-03T09:18:07.575Z,3.70
2022-10-03T09:20:27.495Z,2.97
2022-10-03T09:22:45.148Z,5.43
2022-10-03T09:25:02.110Z,5.18
2022-10-03T09:27:18.959Z,6.13
2022-10-03T09:29:20.399Z,5.65
2022-10-03T09:31:31.204Z,5.18
2022-10-03T09:33:44.747Z,4.68
2022-10-03T09:36:05.146Z,5.47
2022-10-03T09:38:25.666Z,5.90
2022-10-03T09:40:30.127Z,3.22
2022-10-03T09:42:50.345Z,3.30
2022-10-03T09:44:54.574Z,2.53
2022-10-03T09:47:24.316Z,3.42
2022-10-03T09:49:34.909Z,3.88
2022-10-03T09:51:39.418Z,3.03
2022-10-03T09:53:40.981Z,2.90
2022-10-03T09:56:06.567Z,2.92
2022-10-03T09:58:25.934Z,2.55
2022-10-03T10:00:34.755Z,1.40
2022-10-03T10:02:39.764Z,1.75
2022-10-03T10:04:55.377Z,1.88
2022-10-03T10:07:23.018Z,1.63
2022-10-03T10:09:39.768Z,1.45
2022-10-03T10:11:43.908Z,1.63
2022-10-03T10:14:10.257Z,1.20
2022-10-03T10:16:30.926Z,1.23
2022-10-03T10:18:55.955Z,1.13
2022-10-03T10:21:09.557Z,0.98
2022-10-03T10:23:14.238Z,1.50
2022-10-03T10:25:34.500Z,1.35
2022-10-03T10:27:35.869Z,1.58
2022-10-03T10:29:56.424Z,1.38
2022-10-03T10:32:21.394Z,1.75
2022-10-03T10:34:23.219Z,1.23
2022-10-03T10:36:43.738Z,1.65
2022-10-03T10:39:04.406Z,1.25
2022-10-03T10:41:26.065Z,1.92
2022-10-03T10:43:30.212Z,1.42
2022-10-03T10:45:36.046Z,1.48
2022-10-03T10:47:37.434Z,2.25
2022-10-03T10:49:42.020Z,1.00
2022-10-03T10:52:03.061Z,2.83
2022-10-03T10:54:10.319Z,1.30
2022-10-03T10:56:31.947Z,1.25
2022-10-03T10:58:33.391Z,0.93
2022-10-03T11:00:44.215Z,1.70
2022-10-03T11:03:04.450Z,1.52
2022-10-03T11:05:24.312Z,3.33
2022-10-03T11:07:45.759Z,1.27
2022-10-03T11:10:13.381Z,1.00
2022-10-03T11:12:35.821Z,1.65
2022-10-03T11:14:56.354Z,2.47
2022-10-03T11:16:57.879Z,1.02
2022-10-03T11:19:27.741Z,1.10
2022-10-03T11:21:36.324Z,1.88
2022-10-03T11:23:58.189Z,1.42
2022-10-03T11:26:20.997Z,1.20
2022-10-03T11:28:30.520Z,1.20
2022-10-03T11:30:52.781Z,0.80
2022-10-03T11:33:13.904Z,2.03
2022-10-03T11:35:52.823Z,1.05
2022-10-03T11:38:05.584Z,1.00
2022-10-03T11:40:10.896Z,1.10
2022-10-03T11:42:19.764Z,1.33
2022-10-03T11:44:47.613Z,1.17
2022-10-03T11:47:04.330Z,0.93
2022-10-03T11:49:35.199Z,1.58
2022-10-03T11:51:36.586Z,1.50
2022-10-03T11:54:29.443Z,1.33
2022-10-03T11:56:37.755Z,1.02
2022-10-03T11:58:42.288Z,1.58
2022-10-03T12:00:47.266Z,1.88
2022-10-03T12:02:48.747Z,1.02
2022-10-03T12:04:53.353Z,1.40
2022-10-03T12:07:15.886Z,1.30
2022-10-03T12:09:35.509Z,1.15
2022-10-03T12:11:42.791Z,1.25
2022-10-03T12:13:47.281Z,1.38
2022-10-03T12:15:51.018Z,1.50
2022-10-03T12:17:57.654Z,1.30
2022-10-03T12:20:00.166Z,1.00
2022-10-03T12:22:17.219Z,1.70
2022-10-03T12:24:26.325Z,1.02
2022-10-03T12:26:33.767Z,1.50
2022-10-03T12:28:40.618Z,2.08
2022-10-03T12:30:44.858Z,1.13
2022-10-03T12:33:04.749Z,1.42
2022-10-03T12:35:21.757Z,2.15
2022-10-03T12:37:44.275Z,2.28
2022-10-03T12:39:52.570Z,1.98
2022-10-03T12:42:06.111Z,1.60
2022-10-03T12:44:28.387Z,1.38
2022-10-03T12:46:48.792Z,1.80
2022-10-03T12:49:02.328Z,1.55
2022-10-03T12:51:13.196Z,1.45
2022-10-03T12:53:15.984Z,1.60
2022-10-03T12:55:29.092Z,0.85
2022-10-03T12:57:36.369Z,1.20
2022-10-03T12:59:58.193Z,1.48
2022-10-03T13:02:22.865Z,1.58
2022-10-03T13:04:34.048Z,1.00
2022-10-03T13:09:18.464Z,1.00
2022-10-03T13:11:32.687Z,1.15
2022-10-03T13:15:54.453Z,0.70
2022-10-03T13:17:55.989Z,0.70
2022-10-03T13:20:20.807Z,1.48
2022-10-03T13:24:36.589Z,1.33
2022-10-03T13:26:37.987Z,1.23
2022-10-03T13:28:59.495Z,1.33
2022-10-03T13:31:22.524Z,1.48
2022-10-03T13:33:26.303Z,1.77
2022-10-03T13:35:52.282Z,2.50
2022-10-03T13:38:12.034Z,1.63
2022-10-03T13:40:17.447Z,2.00
2022-10-03T13:42:19.660Z,1.48
2022-10-03T13:44:22.557Z,1.95
2022-10-03T13:46:26.981Z,1.25
2022-10-03T13:48:29.612Z,1.70
2022-10-03T13:50:51.065Z,1.88
2022-10-03T13:52:55.372Z,1.55
2022-10-03T13:55:05.739Z,1.30
2022-10-03T13:57:28.450Z,1.90
2022-10-03T13:59:32.876Z,1.85
2022-10-03T14:01:42.979Z,2.17
2022-10-03T14:03:56.984Z,2.33
2022-10-03T14:06:18.912Z,3.55
2022-10-03T14:08:33.833Z,1.80
2022-10-03T14:10:35.266Z,1.77
2022-10-03T14:12:54.394Z,2.50
2022-10-03T14:14:56.877Z,1.90
2022-10-03T14:17:19.963Z,2.28
2022-10-03T14:19:45.278Z,2.25
2022-10-03T14:21:53.029Z,3.30
2022-10-03T14:23:54.419Z,2.92
2022-10-03T14:26:01.210Z,3.55
2022-10-03T14:28:30.120Z,2.65
2022-10-03T14:31:04.940Z,2.97
2022-10-03T14:33:15.763Z,2.80
2022-10-03T14:35:37.356Z,2.83
2022-10-03T14:37:57.535Z,2.63
2022-10-03T14:40:13.119Z,2.50
2022-10-03T14:42:22.883Z,2.45
2022-10-03T14:44:42.855Z,2.83
2022-10-03T14:46:52.660Z,2.47
2022-10-03T14:49:01.954Z,2.35
2022-10-03T14:51:17.560Z,2.45
2022-10-03T14:53:24.401Z,1.60
2022-10-03T14:55:30.261Z,1.77
2022-10-03T14:57:47.940Z,1.85
2022-10-03T14:59:58.392Z,2.75
2022-10-03T15:02:01.419Z,2.00
2022-10-03T15:04:02.915Z,1.30
2022-10-03T15:06:04.582Z,1.42
2022-10-03T15:08:12.988Z,1.73
2022-10-03T15:10:23.506Z,1.65
2022-10-03T15:12:28.430Z,1.73
2022-10-03T15:14:32.810Z,2.17
2022-10-03T15:16:37.248Z,2.30
2022-10-03T15:18:40.483Z,2.38
2022-10-03T15:20:42.857Z,2.92
2022-10-03T15:22:49.049Z,2.90
2022-10-03T15:24:51.176Z,2.10
2022-10-03T15:26:59.437Z,2.80
2022-10-03T15:29:03.811Z,3.25
2022-10-03T15:31:19.318Z,2.80
2022-10-03T15:33:30.215Z,2.75
2022-10-03T15:35:31.768Z,2.70
2022-10-03T15:37:37.290Z,2.95
2022-10-03T15:39:43.901Z,2.53
2022-10-03T15:41:51.442Z,2.20
2022-10-03T15:43:57.050Z,2.50
2022-10-03T15:46:00.375Z,2.70
2022-10-03T15:48:04.284Z,3.67
2022-10-03T15:50:17.890Z,2.22
2022-10-03T15:52:21.068Z,2.58
2022-10-03T15:54:24.373Z,4.40
2022-10-03T15:56:30.021Z,2.30
2022-10-03T15:58:36.701Z,2.85
2022-10-03T16:00:38.747Z,3.10
2022-10-03T16:02:49.823Z,2.90
2022-10-03T16:04:54.635Z,3.55
2022-10-03T16:07:16.309Z,3.47
2022-10-03T16:09:25.800Z,3.90
2022-10-03T16:11:40.300Z,2.92
2022-10-03T16:13:44.580Z,3.53
2022-10-03T16:15:54.675Z,2.90
2022-10-03T16:17:59.434Z,3.92
2022-10-03T16:20:05.583Z,3.45
2022-10-03T16:22:12.317Z,3.50
2022-10-03T16:24:19.686Z,2.55
2022-10-03T16:26:23.537Z,3.08
2022-10-03T16:28:31.164Z,2.45
2022-10-03T16:30:44.274Z,2.60
2022-10-03T16:32:52.468Z,2.15
2022-10-03T16:34:59.632Z,2.25
2022-10-03T16:37:02.174Z,3.53
2022-10-03T16:39:04.617Z,2.20
2022-10-03T16:41:16.131Z,1.55
2022-10-03T16:43:18.208Z,1.92
2022-10-03T16:45:39.273Z,1.55
2022-10-03T16:47:41.051Z,1.77
2022-10-03T16:50:19.673Z,1.25
2022-10-03T16:52:23.723Z,1.83
2022-10-03T16:56:30.326Z,1.60
2022-10-03T16:58:36.188Z,1.40
2022-10-03T17:01:08.990Z,1.27
2022-10-03T17:05:15.430Z,1.30
2022-10-03T17:07:23.658Z,1.85
2022-10-03T17:09:25.107Z,1.23
2022-10-03T17:11:28.792Z,1.52
2022-10-03T17:13:42.816Z,1.38
2022-10-03T17:15:52.454Z,1.20
2022-10-03T17:17:59.959Z,1.27
2022-10-03T17:20:11.218Z,1.15
2022-10-03T17:22:35.909Z,1.30
2022-10-03T17:24:49.589Z,1.05
2022-10-03T17:26:54.052Z,1.85
2022-10-03T17:29:00.181Z,1.15
2022-10-03T17:31:07.348Z,1.30
2022-10-03T17:33:23.539Z,1.35
2022-10-03T17:35:45.883Z,1.10
2022-10-03T17:38:30.513Z,1.23
2022-10-03T17:40:51.627Z,1.10
2022-10-03T17:42:58.586Z,1.20
2022-10-03T17:45:20.686Z,0.90
2022-10-03T17:47:39.176Z,2.40
2022-10-03T17:49:58.071Z,1.20
2022-10-03T17:52:03.961Z,1.35
2022-10-03T17:54:17.472Z,1.60
2022-10-03T17:56:23.902Z,1.20
2022-10-03T17:58:34.787Z,1.50
2022-10-03T18:00:44.600Z,1.75
2022-10-03T18:03:10.049Z,1.50
2022-10-03T18:05:14.438Z,1.25
2022-10-03T18:07:18.518Z,1.17
2022-10-03T18:11:23.647Z,1.65
2022-10-03T18:13:27.927Z,1.63
2022-10-03T18:15:35.876Z,1.20
2022-10-03T18:17:48.092Z,2.55
2022-10-03T18:19:55.548Z,1.35
2022-10-03T18:21:57.042Z,1.63
2022-10-03T18:24:02.055Z,1.90
2022-10-03T18:26:26.462Z,2.25
2022-10-03T18:28:49.094Z,2.45
2022-10-03T18:30:56.483Z,1.88
2022-10-03T18:33:01.354Z,2.80
2022-10-03T18:35:16.079Z,2.13
2022-10-03T18:37:37.619Z,1.25
2022-10-03T18:39:39.396Z,1.90
2022-10-03T18:41:58.459Z,1.60
2022-10-03T18:44:00.610Z,1.58
2022-10-03T18:46:03.611Z,1.60
2022-10-03T18:48:11.505Z,1.97
2022-10-03T18:50:18.913Z,2.88
2022-10-03T18:52:22.374Z,2.17
2022-10-03T18:54:29.254Z,1.75
2022-10-03T18:56:31.243Z,2.28
2022-10-03T18:58:33.810Z,2.40
2022-10-03T19:00:42.584Z,1.95
2022-10-03T19:02:49.434Z,1.80
2022-10-03T19:04:53.513Z,2.05
2022-10-03T19:06:55.674Z,1.70
2022-10-03T19:08:59.433Z,2.40
2022-10-03T19:11:21.414Z,1.80
2022-10-03T19:13:35.785Z,2.00
2022-10-03T19:17:41.098Z,2.15
2022-10-03T19:19:59.232Z,1.77
2022-10-03T19:22:05.698Z,2.72
2022-10-03T19:24:15.131Z,2.20
2022-10-03T19:26:34.885Z,2.30
2022-10-03T19:28:44.118Z,2.38
2022-10-03T19:30:57.982Z,1.58
2022-10-03T19:33:05.363Z,2.20
2022-10-03T19:35:09.739Z,2.40
2022-10-03T19:37:31.438Z,2.85
2022-10-03T19:39:33.814Z,1.88
2022-10-03T19:41:35.317Z,2.35
2022-10-03T19:43:48.070Z,3.08
2022-10-03T19:46:02.697Z,2.50
2022-10-03T19:48:10.736Z,2.42
2022-10-03T19:50:20.586Z,3.10
2022-10-03T19:52:29.729Z,2.90
2022-10-03T19:54:33.794Z,2.17
2022-10-03T19:56:36.717Z,2.13
2022-10-03T19:58:39.235Z,2.53
2022-10-03T20:00:48.954Z,2.60
2022-10-03T20:02:54.603Z,2.47
2022-10-03T20:04:57.360Z,2.53
2022-10-03T20:06:59.402Z,2.40
2022-10-03T20:09:03.887Z,2.63
2022-10-03T20:11:17.928Z,2.67
2022-10-03T20:13:20.708Z,3.08
2022-10-03T20:15:23.462Z,2.95
2022-10-03T20:17:25.131Z,3.42
2022-10-03T20:19:27.679Z,3.03
2022-10-03T20:21:29.471Z,3.00
2022-10-03T20:23:32.171Z,3.30
2022-10-03T20:25:56.712Z,3.53
2022-10-03T20:28:01.232Z,3.10
2022-10-03T20:30:21.753Z,2.95
2022-10-03T20:32:23.321Z,2.88
2022-10-03T20:34:26.226Z,3.15
2022-10-03T20:36:36.673Z,2.60
2022-10-03T20:38:52.280Z,2.40
2022-10-03T20:41:07.665Z,2.40
2022-10-03T20:43:28.659Z,2.72
2022-10-03T20:45:36.574Z,2.78
2022-10-03T20:47:53.009Z,3.22
2022-10-03T20:50:17.907Z,2.72
2022-10-03T20:52:22.156Z,2.75
2022-10-03T20:54:26.667Z,2.53
2022-10-03T20:56:36.941Z,3.47
2022-10-03T20:58:54.933Z,2.60
2022-10-03T21:01:03.783Z,2.65
2022-10-03T21:03:09.912Z,2.75
2022-10-03T21:05:28.575Z,3.33
2022-10-03T21:07:33.966Z,3.38
2022-10-03T21:09:41.021Z,3.20
2022-10-03T21:11:43.869Z,3.33
2022-10-03T21:13:52.387Z,2.78
2022-10-03T21:15:57.267Z,2.85
2022-10-03T21:17:59.362Z,2.28
2022-10-03T21:20:06.169Z,2.65
2022-10-03T21:22:12.261Z,2.25
2022-10-03T21:24:21.561Z,2.90
2022-10-03T21:26:24.556Z,2.88
2022-10-03T21:28:29.617Z,3.00
2022-10-03T21:30:33.921Z,2.53
2022-10-03T21:32:38.785Z,2.78
2022-10-03T21:34:43.371Z,2.80
2022-10-03T21:36:44.816Z,3.00
2022-10-03T21:38:49.241Z,2.88
2022-10-03T21:40:53.796Z,2.78
2022-10-03T21:42:58.581Z,3.15
2022-10-03T21:45:00.077Z,3.03
2022-10-03T21:47:16.329Z,3.20
2022-10-03T21:49:23.779Z,2.17
2022-10-03T21:51:48.615Z,2.97
2022-10-03T21:55:58.735Z,2.47
2022-10-03T21:58:18.750Z,2.92
2022-10-03T22:00:26.101Z,2.88
2022-10-03T22:02:33.540Z,2.53
2022-10-03T22:05:01.549Z,2.35
2022-10-03T22:07:13.194Z,2.63
2022-10-03T22:09:15.197Z,2.33
2022-10-03T22:11:22.278Z,2.83
2022-10-03T22:13:25.840Z,2.53
2022-10-03T22:15:34.560Z,2.95
2022-10-03T22:17:52.757Z,2.55
2022-10-03T22:20:14.473Z,3.10
2022-10-03T22:22:24.935Z,2.40
2022-10-03T22:24:32.469Z,2.20
2022-10-03T22:26:38.416Z,2.17
2022-10-03T22:28:58.606Z,2.35
2022-10-03T22:31:13.613Z,2.45
2022-10-03T22:33:15.310Z,2.70
2022-10-03T22:35:16.723Z,2.60
2022-10-03T22:37:18.186Z,2.65
2022-10-03T22:39:20.575Z,2.90
2022-10-03T22:41:25.442Z,3.30
2022-10-03T22:43:27.975Z,3.10
2022-10-03T22:45:31.182Z,2.35
2022-10-03T22:47:33.523Z,2.90
2022-10-03T22:49:37.860Z,2.80
2022-10-03T22:51:41.035Z,2.80
2022-10-03T22:53:54.146Z,2.95
2022-10-03T22:55:58.494Z,2.28
2022-10-03T22:58:02.170Z,2.13
2022-10-03T23:00:09.343Z,2.38
2022-10-03T23:02:10.957Z,2.38
2022-10-03T23:04:16.018Z,2.47
2022-10-03T23:06:24.572Z,2.03
2022-10-03T23:08:34.197Z,2.00
2022-10-03T23:10:58.649Z,2.22
2022-10-03T23:13:23.519Z,1.70
2022-10-03T23:17:44.866Z,2.38
2022-10-03T23:19:46.346Z,2.42
2022-10-03T23:21:48.903Z,2.15
2022-10-03T23:24:01.016Z,2.47
2022-10-03T23:26:22.751Z,2.15
2022-10-03T23:28:31.535Z,1.77
2022-10-03T23:30:33.798Z,2.30
2022-10-03T23:32:47.561Z,2.15
2022-10-03T23:35:06.874Z,2.15
2022-10-03T23:37:11.335Z,2.53
2022-10-03T23:39:31.146Z,2.53
2022-10-03T23:41:44.058Z,1.75
2022-10-03T23:43:51.212Z,1.77
2022-10-03T23:46:05.790Z,1.40
2022-10-03T23:48:17.623Z,1.58
2022-10-03T23:50:29.600Z,1.75
2022-10-03T23:52:47.971Z,1.58
2022-10-03T23:54:53.082Z,1.67
2022-10-03T23:57:08.765Z,1.92
2022-10-03T23:59:21.053Z,1.20
